createdAt,value
2022-11-18T00:02:21.765Z,99285.56
2022-11-18T00:04:49.634Z,99290.69
2022-11-18T00:07:16.949Z,99299.97
2022-11-18T00:09:44.602Z,99301.31
2022-11-18T00:12:30.280Z,99301.09
2022-11-18T00:14:57.514Z,99312.22
2022-11-18T00:17:24.773Z,99311.88
2022-11-18T00:19:52.085Z,99319.25
2022-11-18T00:22:19.268Z,99328.66
2022-11-18T00:24:46.487Z,99337.59
2022-11-18T00:27:14.024Z,99335.06
2022-11-18T00:29:41.257Z,99341.03
2022-11-18T00:32:08.441Z,99336.41
2022-11-18T00:34:35.989Z,99356.72
2022-11-18T00:37:03.359Z,99366.81
2022-11-18T00:39:30.630Z,99358.53
2022-11-18T00:42:16.449Z,99358.53
2022-11-18T00:44:43.876Z,99365.31
2022-11-18T00:47:11.113Z,99367.66
2022-11-18T00:49:38.395Z,99372.56
2022-11-18T00:52:06.425Z,99381.22
2022-11-18T00:54:33.598Z,99387.66
2022-11-18T00:57:00.811Z,99389.34
2022-11-18T00:59:28.045Z,99386.56
2022-11-18T01:01:55.424Z,99387.97
2022-11-18T01:04:22.966Z,99388.47
2022-11-18T01:06:50.185Z,99388.97
2022-11-18T01:09:17.636Z,99388.31
2022-11-18T01:12:03.783Z,99395.63
2022-11-18T01:14:31.149Z,99387.34
2022-11-18T01:16:58.463Z,99392.47
2022-11-18T01:19:26.119Z,99389.19
2022-11-18T01:21:53.728Z,99399.09
2022-11-18T01:24:21.130Z,99403.75
2022-11-18T01:26:48.687Z,99400.94
2022-11-18T01:29:16.149Z,99402.56
2022-11-18T01:32:08.804Z,99400.56
2022-11-18T01:34:31.399Z,99400.56
2022-11-18T01:36:58.626Z,99409.91
2022-11-18T01:39:26.002Z,99410.38
2022-11-18T01:41:53.192Z,99413.75
2022-11-18T01:45:11.570Z,99415.53
2022-11-18T01:47:58.853Z,99419.78
2022-11-18T01:50:26.816Z,99425.59
2022-11-18T01:52:57.836Z,99424.25
2022-11-18T01:55:27.039Z,99431.38
2022-11-18T01:58:02.996Z,99424.81
2022-11-18T02:00:30.399Z,99428.03
2022-11-18T02:02:57.770Z,99438.25
2022-11-18T02:05:25.375Z,99445.88
2022-11-18T02:07:52.789Z,99436.72
2022-11-18T02:10:22.464Z,99440.75
2022-11-18T02:12:51.247Z,99449.72
2022-11-18T02:15:26.037Z,99451.94
2022-11-18T02:18:01.482Z,99459.34
2022-11-18T02:20:31.996Z,99464.25
2022-11-18T02:23:36.927Z,99457.06
2022-11-18T02:26:13.502Z,99460.41
2022-11-18T02:28:50.339Z,99453.38
2022-11-18T02:31:30.046Z,99459.28
2022-11-18T02:34:18.277Z,99462.47
2022-11-18T02:36:53.705Z,99468.25
2022-11-18T02:39:26.213Z,99476.75
2022-11-18T02:41:56.196Z,99471.53
2022-11-18T02:44:25.248Z,99467.72
2022-11-18T02:46:56.904Z,99483.31
2022-11-18T02:49:36.327Z,99483.66
2022-11-18T02:52:04.774Z,99482.53
2022-11-18T02:54:33.203Z,99488.22
2022-11-18T02:57:01.510Z,99488.56
2022-11-18T02:59:28.919Z,99485.03
2022-11-18T03:01:56.502Z,99484.44
2022-11-18T03:04:25.896Z,99484.09
2022-11-18T03:07:32.349Z,99478.72
2022-11-18T03:10:00.790Z,99495.34
2022-11-18T03:12:49.271Z,99497.56
2022-11-18T03:15:29.549Z,99503.69
2022-11-18T03:18:11.904Z,99495.25
2022-11-18T03:20:45.483Z,99494.31
2022-11-18T03:23:38.067Z,99500.44
2022-11-18T03:26:20.342Z,99507.47
2022-11-18T03:29:07.176Z,99507.09
2022-11-18T03:31:40.840Z,99515.16
2022-11-18T03:34:12.662Z,99509.97
2022-11-18T03:36:42.518Z,99515.03
2022-11-18T03:39:12.382Z,99520.78
2022-11-18T03:41:44.223Z,99514.34
2022-11-18T03:44:16.274Z,99518.81
2022-11-18T03:46:51.773Z,99526.75
2022-11-18T03:49:30.458Z,99528.81
2022-11-18T03:52:02.978Z,99540.06
2022-11-18T03:54:31.683Z,99539.84
2022-11-18T03:57:17.378Z,99546.25
2022-11-18T03:59:48.702Z,99552.22
2022-11-18T04:02:19.184Z,99545.91
2022-11-18T04:04:48.546Z,99559.94
2022-11-18T04:07:39.007Z,99564.28
2022-11-18T04:10:12.003Z,99560.59
2022-11-18T04:12:53.359Z,99562.00
2022-11-18T04:15:20.824Z,99569.34
2022-11-18T04:17:48.376Z,99585.06
2022-11-18T04:20:18.456Z,99585.16
2022-11-18T04:22:46.360Z,99594.47
2022-11-18T04:25:13.629Z,99593.88
2022-11-18T04:27:40.872Z,99597.56
2022-11-18T04:30:09.105Z,99607.09
2022-11-18T04:32:36.387Z,99600.22
2022-11-18T04:35:03.931Z,99605.38
2022-11-18T04:37:31.204Z,99611.13
2022-11-18T04:39:58.487Z,99600.56
2022-11-18T04:42:25.937Z,99601.47
2022-11-18T04:44:53.159Z,99607.78
2022-11-18T04:47:21.126Z,99611.00
2022-11-18T04:49:48.452Z,99610.88
2022-11-18T04:52:16.037Z,99612.47
2022-11-18T04:54:43.513Z,99617.84
2022-11-18T04:57:10.747Z,99621.19
2022-11-18T04:59:38.529Z,99629.88
2022-11-18T05:02:06.060Z,99625.00
2022-11-18T05:04:34.827Z,99627.16
2022-11-18T05:07:03.901Z,99630.78
2022-11-18T05:09:32.438Z,99634.16
2022-11-18T05:12:19.452Z,99630.53
2022-11-18T05:14:50.031Z,99637.88
2022-11-18T05:17:18.861Z,99635.56
2022-11-18T05:19:46.218Z,99640.50
2022-11-18T05:22:14.718Z,99641.28
2022-11-18T05:24:42.010Z,99642.31
2022-11-18T05:27:09.467Z,99638.91
2022-11-18T05:29:36.605Z,99648.47
2022-11-18T05:32:04.067Z,99649.53
2022-11-18T05:34:31.224Z,99648.63
2022-11-18T05:36:58.551Z,99655.69
2022-11-18T05:39:25.751Z,99655.91
2022-11-18T05:42:11.585Z,99656.88
2022-11-18T05:44:38.798Z,99661.47
2022-11-18T05:47:06.307Z,99673.44
2022-11-18T05:49:33.530Z,99673.38
2022-11-18T05:52:00.889Z,99672.78
2022-11-18T05:54:28.357Z,99665.66
2022-11-18T05:56:55.781Z,99676.28
2022-11-18T05:59:23.163Z,99677.75
2022-11-18T06:01:57.065Z,99690.75
2022-11-18T06:04:28.705Z,99679.38
2022-11-18T06:06:59.826Z,99684.38
2022-11-18T06:09:28.909Z,99690.91
2022-11-18T06:11:57.347Z,99694.22
2022-11-18T06:14:30.287Z,99697.97
2022-11-18T06:17:00.819Z,99700.13
2022-11-18T06:19:28.192Z,99708.53
2022-11-18T06:21:55.855Z,99717.19
2022-11-18T06:24:23.952Z,99715.19
2022-11-18T06:26:51.589Z,99726.16
2022-11-18T06:29:26.015Z,99727.22
2022-11-18T06:31:54.965Z,99735.09
2022-11-18T06:34:22.455Z,99719.91
2022-11-18T06:36:49.839Z,99737.19
2022-11-18T06:39:17.470Z,99742.91
2022-11-18T06:41:44.976Z,99743.56
2022-11-18T06:44:12.927Z,99749.47
2022-11-18T06:46:58.377Z,99751.84
2022-11-18T06:49:27.297Z,99758.03
2022-11-18T06:51:54.949Z,99754.41
2022-11-18T06:54:22.467Z,99757.75
2022-11-18T06:56:49.689Z,99759.13
2022-11-18T06:59:23.528Z,99770.06
2022-11-18T07:01:53.080Z,99772.00
2022-11-18T07:04:21.045Z,99776.44
2022-11-18T07:06:48.796Z,99786.38
2022-11-18T07:09:16.430Z,99780.94
2022-11-18T07:11:44.034Z,99795.63
2022-11-18T07:14:12.739Z,99792.94
2022-11-18T07:16:39.980Z,99794.44
2022-11-18T07:19:11.961Z,99798.03
2022-11-18T07:21:39.912Z,99802.63
2022-11-18T07:24:08.067Z,99805.84
2022-11-18T07:26:35.687Z,99804.28
2022-11-18T07:29:03.996Z,99803.47
2022-11-18T07:31:32.132Z,99815.50
2022-11-18T07:33:59.431Z,99817.38
2022-11-18T07:36:33.944Z,99816.31
2022-11-18T07:39:04.278Z,99813.91
2022-11-18T07:41:31.620Z,99821.06
2022-11-18T07:44:01.459Z,99824.03
2022-11-18T07:46:32.412Z,99829.69
2022-11-18T07:49:01.594Z,99819.53
2022-11-18T07:51:30.859Z,99830.16
2022-11-18T07:53:58.053Z,99838.31
2022-11-18T07:56:25.472Z,99838.66
2022-11-18T07:58:56.225Z,99833.13
2022-11-18T08:01:25.522Z,99841.88
2022-11-18T08:03:52.808Z,99853.66
2022-11-18T08:06:20.455Z,99850.72
2022-11-18T08:08:47.818Z,99858.00
2022-11-18T08:11:21.853Z,99864.38
2022-11-18T08:13:50.269Z,99862.06
2022-11-18T08:16:20.042Z,99859.59
2022-11-18T08:18:47.421Z,99863.09
2022-11-18T08:21:15.098Z,99874.97
2022-11-18T08:23:42.906Z,99887.19
2022-11-18T08:26:14.522Z,99882.59
2022-11-18T08:28:42.853Z,99876.41
2022-11-18T08:31:11.612Z,99883.09
2022-11-18T08:33:39.224Z,99886.47
2022-11-18T08:36:18.547Z,99874.72
2022-11-18T08:38:45.816Z,99875.09
2022-11-18T08:41:14.966Z,99883.03
2022-11-18T08:43:42.647Z,99870.38
2022-11-18T08:46:10.090Z,99876.72
2022-11-18T08:48:37.364Z,99880.84
2022-11-18T08:51:04.889Z,99885.81
2022-11-18T08:53:32.928Z,99887.56
2022-11-18T08:56:01.279Z,99882.09
2022-11-18T08:58:28.827Z,99877.41
2022-11-18T09:00:56.152Z,99889.75
2022-11-18T09:03:23.687Z,99892.06
2022-11-18T09:05:50.931Z,99879.25
2022-11-18T09:08:18.208Z,99884.59
2022-11-18T09:10:45.501Z,99883.34
2022-11-18T09:13:40.416Z,99889.31
2022-11-18T09:16:00.965Z,99889.56
2022-11-18T09:18:28.766Z,99902.50
2022-11-18T09:21:00.505Z,99904.72
2022-11-18T09:23:27.920Z,99901.50
2022-11-18T09:26:04.343Z,99914.13
2022-11-18T09:28:32.861Z,99915.44
2022-11-18T09:31:03.928Z,99913.22
2022-11-18T09:33:31.276Z,99917.38
2022-11-18T09:35:58.473Z,99916.06
2022-11-18T09:38:25.956Z,99911.28
2022-11-18T09:41:03.897Z,99918.41
2022-11-18T09:43:47.725Z,99926.13
2022-11-18T09:46:27.560Z,99917.47
2022-11-18T09:49:15.911Z,99915.47
2022-11-18T09:51:46.425Z,99926.59
2022-11-18T09:54:20.214Z,99921.50
2022-11-18T09:56:48.704Z,99924.09
2022-11-18T09:59:19.063Z,99923.28
2022-11-18T10:01:46.158Z,99933.03
2022-11-18T10:04:17.849Z,99934.13
2022-11-18T10:06:46.283Z,99932.47
2022-11-18T10:09:30.788Z,99935.38
2022-11-18T10:12:23.100Z,99942.50
2022-11-18T10:15:08.601Z,99939.94
2022-11-18T10:18:09.117Z,99939.81
2022-11-18T10:20:45.514Z,99947.41
2022-11-18T10:23:21.350Z,99938.06
2022-11-18T10:25:48.739Z,99940.69
2022-11-18T10:28:29.301Z,99947.75
2022-11-18T10:31:11.248Z,99937.31
2022-11-18T10:33:39.067Z,99938.38
2022-11-18T10:36:18.462Z,99944.09
2022-11-18T10:38:49.986Z,99942.59
2022-11-18T10:41:20.543Z,99945.00
2022-11-18T10:43:55.648Z,99950.75
2022-11-18T10:46:31.026Z,99941.84
2022-11-18T10:49:10.713Z,99943.44
2022-11-18T10:51:40.935Z,99944.22
2022-11-18T10:54:09.518Z,99947.31
2022-11-18T10:56:57.548Z,99947.06
2022-11-18T10:59:26.846Z,99955.53
2022-11-18T11:02:09.463Z,99949.28
2022-11-18T11:04:38.023Z,99954.56
2022-11-18T11:07:22.045Z,99952.63
2022-11-18T11:10:05.148Z,99943.78
2022-11-18T11:12:47.173Z,99957.28
2022-11-18T11:15:17.807Z,99959.59
2022-11-18T11:18:16.827Z,99956.53
2022-11-18T11:20:44.440Z,99958.44
2022-11-18T11:23:15.691Z,99959.28
2022-11-18T11:29:26.026Z,99958.13
2022-11-18T11:32:03.189Z,99961.25
2022-11-18T11:34:55.795Z,99959.41
2022-11-18T11:37:23.103Z,99956.09
2022-11-18T11:40:02.560Z,99969.44
2022-11-18T11:42:42.923Z,99955.13
2022-11-18T11:45:10.301Z,99955.75
2022-11-18T11:47:47.874Z,99954.81
2022-11-18T11:50:32.886Z,99936.63
2022-11-18T11:53:28.862Z,99939.19
2022-11-18T11:56:12.529Z,99950.00
2022-11-18T11:59:07.705Z,99954.44
2022-11-18T12:01:50.600Z,99949.59
2022-11-18T12:04:33.819Z,99953.69
2022-11-18T12:07:01.869Z,99954.41
2022-11-18T12:09:44.006Z,99953.84
2022-11-18T12:12:36.095Z,99952.34
2022-11-18T12:15:16.481Z,99957.97
2022-11-18T12:17:49.082Z,99954.38
2022-11-18T12:20:36.494Z,99955.44
2022-11-18T12:23:12.815Z,99957.75
2022-11-18T12:25:59.953Z,99947.06
2022-11-18T12:28:27.267Z,99953.69
2022-11-18T12:31:33.379Z,99964.00
2022-11-18T12:34:26.827Z,99964.38
2022-11-18T12:36:54.345Z,99958.75
2022-11-18T12:39:24.419Z,99952.09
2022-11-18T12:42:10.911Z,99957.06
2022-11-18T12:44:39.372Z,99963.50
2022-11-18T12:47:08.463Z,99958.22
2022-11-18T12:49:36.305Z,99965.03
2022-11-18T12:52:29.212Z,99962.34
2022-11-18T12:55:15.208Z,99951.00
2022-11-18T12:57:42.360Z,99952.63
2022-11-18T13:00:24.870Z,99950.59
2022-11-18T13:02:56.972Z,99947.66
2022-11-18T13:05:29.519Z,99953.63
2022-11-18T13:08:15.982Z,99963.63
2022-11-18T13:10:43.184Z,99962.94
2022-11-18T13:13:24.799Z,99964.00
2022-11-18T13:16:12.349Z,99955.31
2022-11-18T13:18:48.401Z,99960.66
2022-11-18T13:21:43.428Z,99967.03
2022-11-18T13:24:15.192Z,99960.00
2022-11-18T13:26:44.469Z,99953.47
2022-11-18T13:29:33.583Z,99975.13
2022-11-18T13:32:09.498Z,99967.63
2022-11-18T13:34:47.330Z,99961.16
2022-11-18T13:37:21.164Z,99953.53
2022-11-18T13:39:49.541Z,99952.25
2022-11-18T13:42:16.876Z,99943.88
2022-11-18T13:44:46.713Z,99951.50
2022-11-18T13:47:26.415Z,99957.56
2022-11-18T13:49:56.463Z,99957.28
2022-11-18T13:52:29.053Z,99970.84
2022-11-18T13:54:57.534Z,99958.31
2022-11-18T13:57:25.657Z,99951.56
2022-11-18T13:59:54.925Z,99955.09
2022-11-18T14:02:22.348Z,99959.63
2022-11-18T14:04:55.267Z,99959.44
2022-11-18T14:07:34.657Z,99956.28
2022-11-18T14:10:09.081Z,99957.63
2022-11-18T14:12:36.581Z,99961.22
2022-11-18T14:15:33.147Z,99958.09
2022-11-18T14:18:01.565Z,99967.56
2022-11-18T14:20:30.296Z,99975.31
2022-11-18T14:23:01.457Z,99969.13
2022-11-18T14:25:34.189Z,99975.06
2022-11-18T14:28:16.750Z,99968.97
2022-11-18T14:31:03.767Z,99980.25
2022-11-18T14:33:31.937Z,99974.41
2022-11-18T14:36:00.370Z,99975.50
2022-11-18T14:41:45.483Z,99983.94
2022-11-18T14:44:15.836Z,99979.47
2022-11-18T14:46:43.982Z,99984.34
2022-11-18T14:49:14.456Z,99986.66
2022-11-18T14:51:41.729Z,99990.59
2022-11-18T14:54:13.137Z,99979.19
2022-11-18T14:56:40.883Z,99984.75
2022-11-18T14:59:13.293Z,99994.94
2022-11-18T15:01:41.952Z,99994.06
2022-11-18T15:04:09.453Z,99996.28
2022-11-18T15:06:37.725Z,99998.38
2022-11-18T15:09:05.762Z,100000.72
2022-11-18T15:11:33.190Z,100003.22
2022-11-18T15:14:00.345Z,100008.34
2022-11-18T15:16:30.354Z,100009.06
2022-11-18T15:19:00.310Z,100013.53
2022-11-18T15:21:28.044Z,100017.91
2022-11-18T15:23:55.528Z,100017.88
2022-11-18T15:26:25.211Z,100025.94
2022-11-18T15:28:55.054Z,100029.25
2022-11-18T15:31:23.763Z,100027.56
2022-11-18T15:33:51.641Z,100031.03
2022-11-18T15:36:20.803Z,100031.88
2022-11-18T15:38:48.726Z,100045.13
2022-11-18T15:41:18.158Z,100052.19
2022-11-18T15:43:45.484Z,100051.53
2022-11-18T15:46:13.072Z,100050.38
2022-11-18T15:48:40.606Z,100058.53
2022-11-18T15:51:11.936Z,100057.38
2022-11-18T15:53:39.928Z,100060.34
2022-11-18T15:56:25.956Z,100065.72
2022-11-18T15:59:05.355Z,100058.34
2022-11-18T16:01:40.880Z,100071.75
2022-11-18T16:04:11.364Z,100076.69
2022-11-18T16:06:39.161Z,100074.47
2022-11-18T16:09:07.029Z,100081.34
2022-11-18T16:11:52.858Z,100077.81
2022-11-18T16:14:21.876Z,100082.91
2022-11-18T16:16:51.944Z,100081.56
2022-11-18T16:19:21.401Z,100083.41
2022-11-18T16:21:50.402Z,100091.50
2022-11-18T16:24:20.587Z,100089.34
2022-11-18T16:26:48.829Z,100095.06
2022-11-18T16:29:17.363Z,100092.47
2022-11-18T16:31:50.554Z,100092.75
2022-11-18T16:34:22.142Z,100097.28
2022-11-18T16:36:52.194Z,100097.47
2022-11-18T16:39:24.061Z,100108.47
2022-11-18T16:41:52.657Z,100110.38
2022-11-18T16:44:20.031Z,100111.97
2022-11-18T16:46:49.886Z,100116.69
2022-11-18T16:49:19.494Z,100120.38
2022-11-18T16:51:49.145Z,100123.97
2022-11-18T16:54:19.220Z,100123.06
2022-11-18T16:56:47.715Z,100131.47
2022-11-18T16:59:17.617Z,100132.00
2022-11-18T17:01:45.244Z,100136.91
2022-11-18T17:04:12.747Z,100147.63
2022-11-18T17:06:40.595Z,100152.06
2022-11-18T17:09:13.215Z,100154.50
2022-11-18T17:11:40.485Z,100154.84
2022-11-18T17:14:07.931Z,100158.50
2022-11-18T17:16:37.411Z,100164.66
2022-11-18T17:19:10.173Z,100147.72
2022-11-18T17:21:39.259Z,100148.66
2022-11-18T17:24:07.913Z,100146.38
2022-11-18T17:26:35.214Z,100140.97
2022-11-18T17:29:02.400Z,100148.38
2022-11-18T17:31:29.662Z,100144.56
2022-11-18T17:33:56.989Z,100153.56
2022-11-18T17:36:26.418Z,100151.06
2022-11-18T17:38:55.701Z,100156.41
2022-11-18T17:41:43.471Z,100155.50
2022-11-18T17:44:11.999Z,100155.13
2022-11-18T17:46:39.497Z,100160.69
2022-11-18T17:49:13.033Z,100171.13
2022-11-18T17:51:40.584Z,100164.94
2022-11-18T17:54:08.651Z,100175.25
2022-11-18T17:56:36.254Z,100167.31
2022-11-18T17:59:03.738Z,100173.56
2022-11-18T18:01:31.200Z,100181.06
2022-11-18T18:03:58.466Z,100186.97
2022-11-18T18:06:26.809Z,100181.66
2022-11-18T18:08:59.895Z,100197.19
2022-11-18T18:11:27.435Z,100189.63
2022-11-18T18:14:13.423Z,100193.38
2022-11-18T18:16:46.040Z,100192.81
2022-11-18T18:19:18.901Z,100187.84
2022-11-18T18:21:46.731Z,100190.50
2022-11-18T18:24:19.585Z,100187.22
2022-11-18T18:26:47.379Z,100200.00
2022-11-18T18:29:14.673Z,100200.69
2022-11-18T18:31:41.985Z,100202.56
2022-11-18T18:34:09.171Z,100199.63
2022-11-18T18:36:37.312Z,100211.50
2022-11-18T18:39:04.773Z,100209.59
2022-11-18T18:41:32.653Z,100211.91
2022-11-18T18:44:01.121Z,100216.13
2022-11-18T18:46:34.205Z,100209.81
2022-11-18T18:49:06.390Z,100221.84
2022-11-18T18:51:41.839Z,100218.50
2022-11-18T18:54:14.776Z,100223.91
2022-11-18T18:56:42.643Z,100221.22
2022-11-18T18:59:10.388Z,100229.09
2022-11-18T19:01:38.651Z,100229.75
2022-11-18T19:04:07.138Z,100232.34
2022-11-18T19:06:59.371Z,100237.75
2022-11-18T19:09:28.092Z,100235.44
2022-11-18T19:12:25.067Z,100234.84
2022-11-18T19:14:52.450Z,100223.91
2022-11-18T19:17:20.291Z,100225.53
2022-11-18T19:20:06.275Z,100231.41
2022-11-18T19:22:33.914Z,100229.09
2022-11-18T19:25:01.670Z,100234.06
2022-11-18T19:27:29.400Z,100237.88
2022-11-18T19:29:56.732Z,100244.00
2022-11-18T19:32:23.987Z,100235.38
2022-11-18T19:34:51.392Z,100242.03
2022-11-18T19:37:18.673Z,100232.94
2022-11-18T19:39:45.939Z,100235.09
2022-11-18T19:42:13.257Z,100237.41
2022-11-18T19:44:40.666Z,100230.28
2022-11-18T19:47:07.925Z,100236.63
2022-11-18T19:49:35.189Z,100237.75
2022-11-18T19:52:02.596Z,100246.31
2022-11-18T19:54:29.927Z,100249.78
2022-11-18T19:56:57.428Z,100245.13
2022-11-18T19:59:24.740Z,100250.91
2022-11-18T20:01:51.966Z,100248.97
2022-11-18T20:04:19.308Z,100248.28
2022-11-18T20:06:46.809Z,100253.66
2022-11-18T20:09:14.157Z,100252.78
2022-11-18T20:11:42.879Z,100249.78
2022-11-18T20:14:11.315Z,100260.03
2022-11-18T20:16:38.632Z,100248.84
2022-11-18T20:19:17.860Z,100256.69
2022-11-18T20:21:47.944Z,100259.34
2022-11-18T20:24:16.145Z,100256.09
2022-11-18T20:26:44.224Z,100260.28
2022-11-18T20:29:11.815Z,100263.81
2022-11-18T20:31:39.183Z,100253.81
2022-11-18T20:34:06.383Z,100263.16
2022-11-18T20:36:35.918Z,100257.84
2022-11-18T20:39:08.015Z,100254.78
2022-11-18T20:41:36.477Z,100259.22
2022-11-18T20:44:04.034Z,100256.22
2022-11-18T20:46:31.560Z,100263.28
2022-11-18T20:48:58.849Z,100251.50
2022-11-18T20:51:28.200Z,100258.72
2022-11-18T20:53:56.556Z,100258.63
2022-11-18T20:56:25.832Z,100267.06
2022-11-18T20:58:53.402Z,100260.91
2022-11-18T21:01:26.124Z,100274.81
2022-11-18T21:03:58.131Z,100271.34
2022-11-18T21:06:27.810Z,100263.25
2022-11-18T21:09:00.250Z,100263.28
2022-11-18T21:11:28.080Z,100268.81
2022-11-18T21:14:18.422Z,100275.78
2022-11-18T21:16:49.116Z,100276.91
2022-11-18T21:19:16.696Z,100277.25
2022-11-18T21:21:44.435Z,100280.69
2022-11-18T21:24:32.309Z,100282.53
2022-11-18T21:27:00.944Z,100286.28
2022-11-18T21:29:30.050Z,100297.63
2022-11-18T21:31:58.293Z,100296.59
2022-11-18T21:34:25.564Z,100297.88
2022-11-18T21:36:55.005Z,100292.50
2022-11-18T21:39:25.967Z,100294.19
2022-11-18T21:41:56.785Z,100296.00
2022-11-18T21:44:25.034Z,100299.72
2022-11-18T21:46:52.311Z,100304.63
2022-11-18T21:49:19.786Z,100294.84
2022-11-18T21:51:47.076Z,100303.91
2022-11-18T21:54:15.914Z,100301.38
2022-11-18T21:56:43.659Z,100303.09
2022-11-18T21:59:10.872Z,100305.66
2022-11-18T22:01:38.033Z,100307.69
2022-11-18T22:04:05.884Z,100313.06
2022-11-18T22:06:34.402Z,100308.34
2022-11-18T22:09:03.747Z,100305.69
2022-11-18T22:11:31.062Z,100320.63
2022-11-18T22:13:58.336Z,100322.31
2022-11-18T22:16:26.765Z,100326.34
2022-11-18T22:19:01.535Z,100334.78
2022-11-18T22:21:31.191Z,100344.47
2022-11-18T22:23:59.847Z,100334.03
2022-11-18T22:26:27.605Z,100332.41
2022-11-18T22:28:56.239Z,100336.53
2022-11-18T22:31:25.016Z,100342.38
2022-11-18T22:33:52.936Z,100344.63
2022-11-18T22:36:22.056Z,100355.75
2022-11-18T22:38:49.553Z,100353.56
2022-11-18T22:41:37.344Z,100357.03
2022-11-18T22:44:08.074Z,100353.03
2022-11-18T22:46:36.465Z,100359.28
2022-11-18T22:49:04.956Z,100363.16
2022-11-18T22:51:32.412Z,100361.28
2022-11-18T22:54:30.840Z,100372.75
2022-11-18T22:56:49.552Z,100363.78
2022-11-18T22:59:17.385Z,100362.75
2022-11-18T23:01:44.918Z,100374.84
2022-11-18T23:04:12.192Z,100377.81
2022-11-18T23:06:39.467Z,100383.69
2022-11-18T23:09:06.714Z,100369.81
2022-11-18T23:11:52.259Z,100368.28
2022-11-18T23:14:19.483Z,100382.81
2022-11-18T23:16:46.686Z,100376.50
2022-11-18T23:19:17.293Z,100379.84
2022-11-18T23:21:45.355Z,100375.72
2022-11-18T23:24:13.929Z,100377.78
2022-11-18T23:26:41.525Z,100390.63
2022-11-18T23:29:10.293Z,100388.66
2022-11-18T23:31:43.684Z,100395.50
2022-11-18T23:34:12.283Z,100400.00
2022-11-18T23:36:40.053Z,100401.09
2022-11-18T23:39:07.950Z,100396.16
2022-11-18T23:41:35.499Z,100403.44
2022-11-18T23:44:03.121Z,100407.22
2022-11-18T23:46:30.447Z,100412.75
2022-11-18T23:48:57.609Z,100417.47
2022-11-18T23:51:25.482Z,100417.97
2022-11-18T23:53:55.632Z,100423.84
2022-11-18T23:56:25.070Z,100421.78
2022-11-18T23:58:53.824Z,100428.59
